createdAt,value
2023-03-10T00:01:24.179Z,77.56
2023-03-10T00:03:52.542Z,77.25
2023-03-10T00:06:25.556Z,77.59
2023-03-10T00:08:53.630Z,78.07
2023-03-10T00:11:22.031Z,78.05
2023-03-10T00:13:49.694Z,77.97
2023-03-10T00:16:30.801Z,78.14
2023-03-10T00:18:58.993Z,78.81
2023-03-10T00:21:32.332Z,78.70
2023-03-10T00:24:00.458Z,79.05
2023-03-10T00:26:30.128Z,79.48
2023-03-10T00:28:57.808Z,79.81
2023-03-10T00:31:27.466Z,79.90
2023-03-10T00:33:56.974Z,79.99
2023-03-10T00:36:27.202Z,80.31
2023-03-10T00:38:56.077Z,80.31
2023-03-10T00:41:30.707Z,80.11
2023-03-10T00:43:59.138Z,80.98
2023-03-10T00:46:29.964Z,81.33
2023-03-10T00:48:57.679Z,81.94
2023-03-10T00:51:25.364Z,82.02
2023-03-10T00:53:53.041Z,82.33
2023-03-10T00:56:26.996Z,82.63
2023-03-10T00:58:59.913Z,82.65
2023-03-10T01:01:39.481Z,82.66
2023-03-10T01:04:16.047Z,83.06
2023-03-10T01:06:45.248Z,83.41
2023-03-10T01:09:12.875Z,83.49
2023-03-10T01:11:41.337Z,83.60
2023-03-10T01:14:09.896Z,84.21
2023-03-10T01:16:39.852Z,83.86
2023-03-10T01:19:07.886Z,84.12
2023-03-10T01:21:38.247Z,84.23
2023-03-10T01:24:08.097Z,83.84
2023-03-10T01:26:35.941Z,83.69
2023-03-10T01:29:03.581Z,83.80
2023-03-10T01:31:31.384Z,83.94
2023-03-10T01:33:59.303Z,84.15
2023-03-10T01:36:29.862Z,84.37
2023-03-10T01:38:58.556Z,84.59
2023-03-10T01:41:26.206Z,84.83
2023-03-10T01:43:57.852Z,85.09
2023-03-10T01:46:28.152Z,84.87
2023-03-10T01:48:58.659Z,85.32
2023-03-10T01:51:26.632Z,85.68
2023-03-10T01:53:54.684Z,85.51
2023-03-10T01:56:22.486Z,85.40
2023-03-10T01:58:51.069Z,85.91
2023-03-10T02:01:19.319Z,85.47
2023-03-10T02:04:03.321Z,86.18
2023-03-10T02:06:33.807Z,86.28
2023-03-10T02:09:04.486Z,86.31
2023-03-10T02:11:34.760Z,86.15
2023-03-10T02:14:06.334Z,87.08
2023-03-10T02:16:35.479Z,86.47
2023-03-10T02:19:07.401Z,86.67
2023-03-10T02:21:50.199Z,86.38
2023-03-10T02:24:26.379Z,86.81
2023-03-10T02:26:53.942Z,87.00
2023-03-10T02:29:58.040Z,87.28
2023-03-10T02:32:27.976Z,87.23
2023-03-10T02:34:55.652Z,87.24
2023-03-10T02:37:28.087Z,87.58
2023-03-10T02:39:58.702Z,87.32
2023-03-10T02:42:33.861Z,87.89
2023-03-10T02:45:05.667Z,87.57
2023-03-10T02:47:33.228Z,87.30
2023-03-10T02:50:00.841Z,88.04
2023-03-10T02:52:52.692Z,86.80
2023-03-10T02:55:20.513Z,87.15
2023-03-10T02:57:48.977Z,88.47
2023-03-10T03:00:17.926Z,88.80
2023-03-10T03:02:45.487Z,88.08
2023-03-10T03:05:13.053Z,88.38
2023-03-10T03:07:42.755Z,88.29
2023-03-10T03:10:11.006Z,88.44
2023-03-10T03:12:40.079Z,88.00
2023-03-10T03:15:08.581Z,88.16
2023-03-10T03:17:36.238Z,88.62
2023-03-10T03:20:13.916Z,88.88
2023-03-10T03:22:46.437Z,88.87
2023-03-10T03:25:16.130Z,89.19
2023-03-10T03:27:47.078Z,89.90
2023-03-10T03:30:23.532Z,89.79
2023-03-10T03:32:51.821Z,89.32
2023-03-10T03:35:26.040Z,89.87
2023-03-10T03:37:56.833Z,89.37
2023-03-10T03:40:26.160Z,89.10
2023-03-10T03:42:55.053Z,89.53
2023-03-10T03:45:25.156Z,89.16
2023-03-10T03:47:55.079Z,89.55
2023-03-10T03:50:23.872Z,89.70
2023-03-10T03:52:52.234Z,89.97
2023-03-10T03:55:20.560Z,89.71
2023-03-10T03:57:48.691Z,89.50
2023-03-10T04:00:27.199Z,89.86
2023-03-10T04:02:57.402Z,90.07
2023-03-10T04:05:25.049Z,89.81
2023-03-10T04:07:52.993Z,89.92
2023-03-10T04:10:23.600Z,90.76
2023-03-10T04:12:51.309Z,90.75
2023-03-10T04:15:19.046Z,91.55
2023-03-10T04:17:46.670Z,90.94
2023-03-10T04:20:15.129Z,91.10
2023-03-10T04:22:45.576Z,90.97
2023-03-10T04:25:15.902Z,91.13
2023-03-10T04:27:43.573Z,91.39
2023-03-10T04:30:14.709Z,91.42
2023-03-10T04:32:46.082Z,91.22
2023-03-10T04:35:17.772Z,91.12
2023-03-10T04:37:47.602Z,91.89
2023-03-10T04:40:15.618Z,91.75
2023-03-10T04:42:43.287Z,93.29
2023-03-10T04:45:11.785Z,93.82
2023-03-10T04:47:39.691Z,93.79
2023-03-10T04:50:08.601Z,93.18
2023-03-10T04:52:38.533Z,93.05
2023-03-10T04:55:06.509Z,94.48
2023-03-10T04:57:36.854Z,94.12
2023-03-10T05:00:08.065Z,95.12
2023-03-10T05:02:37.675Z,94.96
2023-03-10T05:05:06.000Z,95.47
2023-03-10T05:07:33.677Z,96.47
2023-03-10T05:10:01.617Z,96.82
2023-03-10T05:12:29.321Z,97.04
2023-03-10T05:14:56.931Z,97.91
2023-03-10T05:17:27.595Z,97.42
2023-03-10T05:19:55.619Z,97.43
2023-03-10T05:22:24.259Z,97.32
2023-03-10T05:24:54.450Z,97.22
2023-03-10T05:27:24.463Z,96.91
2023-03-10T05:29:52.458Z,96.93
2023-03-10T05:32:20.118Z,97.28
2023-03-10T05:34:47.964Z,97.28
2023-03-10T05:37:15.593Z,97.58
2023-03-10T05:39:43.824Z,97.41
2023-03-10T05:42:12.392Z,97.35
2023-03-10T05:44:40.956Z,97.52
2023-03-10T05:47:08.864Z,97.75
2023-03-10T05:49:38.628Z,97.09
2023-03-10T05:52:09.017Z,96.79
2023-03-10T05:54:39.783Z,96.21
2023-03-10T05:57:11.235Z,95.94
2023-03-10T05:59:39.730Z,96.18
2023-03-10T06:02:07.438Z,95.83
2023-03-10T06:04:35.065Z,95.98
2023-03-10T06:07:03.098Z,95.18
2023-03-10T06:09:32.115Z,95.55
2023-03-10T06:12:00.852Z,95.54
2023-03-10T06:14:31.074Z,95.21
2023-03-10T06:16:58.848Z,94.94
2023-03-10T06:19:29.012Z,93.20
2023-03-10T06:21:56.649Z,93.02
2023-03-10T06:24:25.382Z,92.70
2023-03-10T06:26:55.470Z,93.22
2023-03-10T06:29:23.075Z,93.47
2023-03-10T06:31:50.854Z,91.87
2023-03-10T06:34:19.266Z,91.87
2023-03-10T06:36:46.884Z,91.19
2023-03-10T06:39:14.528Z,90.93
2023-03-10T06:41:45.661Z,90.43
2023-03-10T06:44:19.136Z,90.28
2023-03-10T06:46:49.252Z,89.86
2023-03-10T06:49:16.870Z,89.68
2023-03-10T06:51:44.769Z,89.01
2023-03-10T06:54:12.369Z,88.82
2023-03-10T06:56:40.233Z,88.50
2023-03-10T06:59:07.854Z,88.02
2023-03-10T07:01:35.637Z,87.44
2023-03-10T07:04:03.397Z,87.06
2023-03-10T07:06:31.371Z,86.43
2023-03-10T07:09:00.799Z,85.59
2023-03-10T07:11:28.836Z,84.97
2023-03-10T07:13:56.685Z,84.52
2023-03-10T07:16:25.792Z,83.71
2023-03-10T07:18:53.464Z,82.62
2023-03-10T07:21:22.452Z,81.61
2023-03-10T07:23:50.529Z,81.32
2023-03-10T07:26:19.871Z,78.66
2023-03-10T07:28:49.882Z,77.66
2023-03-10T07:31:19.176Z,75.33
2023-03-10T07:33:47.211Z,71.86
2023-03-10T07:36:23.563Z,68.74
2023-03-10T07:38:51.324Z,66.51
2023-03-10T07:41:21.988Z,65.15
2023-03-10T07:43:55.671Z,64.72
2023-03-10T07:46:25.980Z,61.22
2023-03-10T07:48:53.994Z,58.64
2023-03-10T07:51:24.579Z,58.05
2023-03-10T07:53:52.263Z,55.10
2023-03-10T07:56:19.941Z,55.81
2023-03-10T07:58:47.600Z,57.14
2023-03-10T08:01:17.874Z,55.38
2023-03-10T08:03:46.394Z,51.68
2023-03-10T08:06:24.464Z,53.58
2023-03-10T08:08:53.084Z,54.14
2023-03-10T08:11:21.730Z,54.46
2023-03-10T08:13:49.823Z,55.11
2023-03-10T08:16:19.657Z,56.65
2023-03-10T08:18:47.420Z,53.53
2023-03-10T08:21:17.515Z,50.25
2023-03-10T08:23:45.241Z,46.55
2023-03-10T08:26:16.300Z,46.80
2023-03-10T08:28:44.684Z,45.85
2023-03-10T08:31:15.327Z,43.22
2023-03-10T08:33:46.102Z,44.70
2023-03-10T08:36:17.043Z,46.68
2023-03-10T08:38:45.498Z,50.55
2023-03-10T08:41:37.620Z,52.12
2023-03-10T08:44:06.842Z,54.82
2023-03-10T08:46:35.374Z,56.11
2023-03-10T08:49:05.340Z,58.31
2023-03-10T08:51:37.765Z,56.75
2023-03-10T08:54:08.974Z,55.62
2023-03-10T08:56:36.614Z,51.46
2023-03-10T08:59:04.365Z,54.02
2023-03-10T09:01:35.224Z,54.83
2023-03-10T09:04:04.601Z,52.97
2023-03-10T09:06:32.552Z,51.44
2023-03-10T09:09:00.230Z,51.88
2023-03-10T09:11:31.625Z,54.14
2023-03-10T09:14:00.337Z,56.09
2023-03-10T09:16:31.001Z,57.57
2023-03-10T09:19:04.075Z,60.20
2023-03-10T09:21:34.396Z,61.05
2023-03-10T09:24:05.526Z,62.30
2023-03-10T09:26:34.387Z,62.17
2023-03-10T09:29:02.787Z,61.44
2023-03-10T09:31:34.904Z,60.21
2023-03-10T09:34:05.665Z,54.76
2023-03-10T09:36:36.632Z,50.65
2023-03-10T09:39:04.734Z,51.36
2023-03-10T09:41:53.964Z,50.58
2023-03-10T09:44:23.010Z,49.81
2023-03-10T09:47:00.373Z,50.56
2023-03-10T09:49:51.734Z,50.21
2023-03-10T09:52:30.062Z,51.14
2023-03-10T09:55:18.088Z,50.66
2023-03-10T09:57:48.900Z,50.05
2023-03-10T10:00:24.909Z,50.82
2023-03-10T10:03:00.950Z,54.68
2023-03-10T10:05:33.676Z,56.12
2023-03-10T10:08:06.100Z,55.89
2023-03-10T10:10:37.754Z,55.58
2023-03-10T10:13:15.418Z,53.26
2023-03-10T10:15:47.907Z,50.17
2023-03-10T10:18:25.791Z,49.95
2023-03-10T10:21:11.337Z,46.85
2023-03-10T10:23:41.852Z,47.71
2023-03-10T10:26:24.812Z,48.18
2023-03-10T10:28:59.405Z,48.28
2023-03-10T10:31:31.546Z,48.57
2023-03-10T10:34:04.531Z,49.44
2023-03-10T10:36:36.182Z,50.46
2023-03-10T10:39:06.246Z,50.50
2023-03-10T10:41:35.527Z,50.16
2023-03-10T10:44:15.515Z,52.02
2023-03-10T10:46:58.874Z,52.79
2023-03-10T10:49:29.092Z,54.11
2023-03-10T10:52:02.808Z,52.74
2023-03-10T10:54:39.081Z,50.74
2023-03-10T10:57:20.075Z,52.71
2023-03-10T10:59:48.212Z,54.54
2023-03-10T11:02:24.859Z,54.48
2023-03-10T11:04:52.502Z,55.67
2023-03-10T11:07:27.132Z,55.96
2023-03-10T11:09:58.822Z,55.62
2023-03-10T11:12:45.103Z,56.32
2023-03-10T11:15:24.415Z,56.77
2023-03-10T11:18:02.405Z,57.48
2023-03-10T11:20:56.020Z,57.92
2023-03-10T11:23:32.083Z,57.82
2023-03-10T11:26:21.541Z,55.87
2023-03-10T11:28:55.572Z,53.47
2023-03-10T11:31:52.233Z,54.54
2023-03-10T11:34:30.456Z,53.73
2023-03-10T11:37:35.695Z,49.88
2023-03-10T11:40:21.924Z,48.11
2023-03-10T11:43:09.040Z,51.22
2023-03-10T11:45:45.526Z,50.89
2023-03-10T11:48:43.390Z,48.16
2023-03-10T11:51:25.007Z,47.54
2023-03-10T11:53:57.779Z,48.50
2023-03-10T11:56:28.025Z,47.54
2023-03-10T11:59:01.715Z,47.15
2023-03-10T12:01:40.764Z,45.45
2023-03-10T12:04:46.097Z,46.26
2023-03-10T12:07:30.724Z,47.95
2023-03-10T12:10:21.843Z,48.21
2023-03-10T12:12:51.434Z,49.04
2023-03-10T12:15:24.021Z,49.73
2023-03-10T12:17:53.772Z,50.14
2023-03-10T12:20:21.336Z,49.78
2023-03-10T12:22:54.181Z,47.48
2023-03-10T12:25:32.834Z,47.98
2023-03-10T12:28:18.656Z,47.63
2023-03-10T12:31:10.508Z,48.83
2023-03-10T12:33:38.600Z,51.35
2023-03-10T12:36:39.478Z,49.91
2023-03-10T12:39:31.516Z,48.53
2023-03-10T12:42:00.539Z,48.86
2023-03-10T12:44:37.215Z,50.07
2023-03-10T12:47:18.872Z,50.06
2023-03-10T12:50:14.081Z,52.83
2023-03-10T12:52:44.661Z,53.16
2023-03-10T12:55:17.976Z,53.90
2023-03-10T12:57:55.113Z,51.71
2023-03-10T13:00:31.471Z,51.93
2023-03-10T13:03:11.380Z,52.28
2023-03-10T13:05:42.873Z,50.89
2023-03-10T13:08:21.114Z,53.16
2023-03-10T13:10:54.640Z,52.76
2023-03-10T13:13:23.078Z,53.50
2023-03-10T13:16:02.628Z,53.54
2023-03-10T13:18:30.915Z,52.49
2023-03-10T13:21:02.270Z,51.87
2023-03-10T13:23:35.241Z,52.15
2023-03-10T13:26:07.432Z,51.42
2023-03-10T13:28:36.498Z,52.38
2023-03-10T13:31:16.218Z,52.27
2023-03-10T13:33:52.691Z,52.57
2023-03-10T13:36:38.436Z,54.68
2023-03-10T13:39:18.774Z,55.47
2023-03-10T13:41:50.369Z,56.08
2023-03-10T13:44:25.220Z,55.22
2023-03-10T13:46:56.033Z,54.37
2023-03-10T13:49:30.101Z,55.40
2023-03-10T13:51:59.931Z,55.70
2023-03-10T13:54:31.203Z,57.36
2023-03-10T13:57:31.097Z,57.89
2023-03-10T13:59:59.919Z,57.86
2023-03-10T14:02:39.437Z,57.76
2023-03-10T14:05:08.927Z,58.67
2023-03-10T14:07:40.040Z,60.35
2023-03-10T14:10:08.690Z,61.11
2023-03-10T14:12:51.386Z,61.37
2023-03-10T14:15:28.515Z,62.30
2023-03-10T14:18:08.381Z,62.79
2023-03-10T14:20:41.667Z,63.39
2023-03-10T14:23:22.608Z,63.14
2023-03-10T14:25:52.744Z,63.33
2023-03-10T14:28:26.337Z,62.74
2023-03-10T14:30:55.137Z,62.99
2023-03-10T14:33:22.825Z,63.06
2023-03-10T14:35:53.020Z,62.78
2023-03-10T14:38:20.680Z,62.84
2023-03-10T14:40:51.622Z,62.95
2023-03-10T14:43:25.666Z,63.07
2023-03-10T14:45:56.180Z,63.31
2023-03-10T14:48:29.357Z,63.59
2023-03-10T14:50:59.282Z,63.85
2023-03-10T14:53:28.429Z,64.41
2023-03-10T14:55:59.019Z,64.39
2023-03-10T14:58:34.267Z,64.52
2023-03-10T15:01:02.303Z,64.89
2023-03-10T15:03:29.925Z,64.99
2023-03-10T15:05:57.665Z,65.37
2023-03-10T15:08:25.506Z,65.38
2023-03-10T15:10:53.984Z,66.19
2023-03-10T15:13:24.961Z,66.33
2023-03-10T15:15:53.215Z,66.54
2023-03-10T15:18:23.045Z,67.47
2023-03-10T15:20:58.936Z,68.18
2023-03-10T15:23:27.993Z,68.56
2023-03-10T15:25:56.915Z,69.37
2023-03-10T15:28:27.931Z,69.23
2023-03-10T15:30:55.748Z,69.81
2023-03-10T15:33:24.512Z,70.44
2023-03-10T15:35:53.320Z,70.45
2023-03-10T15:38:21.036Z,70.61
2023-03-10T15:40:48.702Z,70.76
2023-03-10T15:43:19.336Z,70.95
2023-03-10T15:45:49.277Z,71.10
2023-03-10T15:48:19.580Z,71.41
2023-03-10T15:50:47.968Z,71.79
2023-03-10T15:53:15.960Z,71.42
2023-03-10T15:55:44.236Z,71.95
2023-03-10T15:58:13.084Z,71.50
2023-03-10T16:00:43.943Z,73.06
2023-03-10T16:03:18.239Z,72.75
2023-03-10T16:05:49.695Z,73.23
2023-03-10T16:08:18.993Z,73.43
2023-03-10T16:10:56.520Z,73.91
2023-03-10T16:13:24.992Z,74.45
2023-03-10T16:15:53.472Z,74.58
2023-03-10T16:18:21.180Z,75.01
2023-03-10T16:20:59.727Z,75.42
2023-03-10T16:23:31.679Z,75.86
2023-03-10T16:26:10.855Z,75.55
2023-03-10T16:28:40.794Z,76.28
2023-03-10T16:31:13.262Z,76.65
2023-03-10T16:33:41.470Z,77.59
2023-03-10T16:36:18.656Z,77.41
2023-03-10T16:38:46.645Z,78.22
2023-03-10T16:41:14.728Z,79.15
2023-03-10T16:43:42.612Z,79.03
2023-03-10T16:46:12.160Z,79.40
2023-03-10T16:48:45.921Z,79.12
2023-03-10T16:51:25.652Z,80.22
2023-03-10T16:53:55.177Z,80.42
2023-03-10T16:56:25.168Z,79.90
2023-03-10T16:58:56.442Z,80.38
2023-03-10T17:01:25.054Z,81.19
2023-03-10T17:03:56.134Z,81.51
2023-03-10T17:06:32.726Z,81.43
2023-03-10T17:09:01.484Z,81.67
2023-03-10T17:11:31.901Z,81.96
2023-03-10T17:14:02.787Z,81.53
2023-03-10T17:16:35.031Z,82.29
2023-03-10T17:19:09.124Z,82.36
2023-03-10T17:21:43.854Z,82.28
2023-03-10T17:24:11.712Z,82.87
2023-03-10T17:26:39.409Z,82.76
2023-03-10T17:29:09.787Z,82.35
2023-03-10T17:31:38.202Z,82.66
2023-03-10T17:34:11.034Z,83.26
2023-03-10T17:36:38.892Z,83.61
2023-03-10T17:39:07.524Z,82.95
2023-03-10T17:41:36.692Z,83.92
2023-03-10T17:44:05.467Z,83.69
2023-03-10T17:46:33.386Z,83.06
2023-03-10T17:49:01.139Z,82.38
2023-03-10T17:51:31.852Z,82.05
2023-03-10T17:54:02.004Z,81.64
2023-03-10T17:56:30.390Z,81.42
2023-03-10T17:59:01.003Z,81.19
2023-03-10T18:01:30.656Z,80.78
2023-03-10T18:04:01.988Z,80.41
2023-03-10T18:06:32.398Z,79.98
2023-03-10T18:09:01.595Z,79.93
2023-03-10T18:11:32.300Z,79.67
2023-03-10T18:14:03.384Z,79.47
2023-03-10T18:16:33.921Z,79.44
2023-03-10T18:19:02.495Z,79.19
2023-03-10T18:21:32.465Z,79.10
2023-03-10T18:24:00.210Z,79.07
2023-03-10T18:26:30.723Z,79.09
2023-03-10T18:29:00.212Z,78.90
2023-03-10T18:31:30.794Z,78.70
2023-03-10T18:33:59.293Z,78.21
2023-03-10T18:36:27.493Z,79.79
2023-03-10T18:38:55.573Z,82.33
2023-03-10T18:41:29.380Z,83.38
2023-03-10T18:43:57.095Z,84.99
2023-03-10T18:46:24.865Z,85.26
2023-03-10T18:48:55.816Z,87.84
2023-03-10T18:51:25.096Z,88.39
2023-03-10T18:53:53.010Z,90.07
2023-03-10T18:56:20.696Z,91.46
2023-03-10T18:58:48.267Z,92.86
2023-03-10T19:01:16.827Z,94.72
2023-03-10T19:03:44.452Z,93.91
2023-03-10T19:06:14.274Z,94.04
2023-03-10T19:08:41.937Z,96.79
2023-03-10T19:11:11.142Z,99.11
2023-03-10T19:13:40.552Z,99.54
2023-03-10T19:16:09.951Z,98.71
2023-03-10T19:18:37.800Z,99.11
2023-03-10T19:21:06.138Z,100.00
2023-03-10T19:23:35.091Z,100.00
2023-03-10T19:26:03.846Z,98.99
2023-03-10T19:28:31.566Z,99.99
2023-03-10T19:30:59.274Z,100.00
2023-03-10T19:33:27.056Z,99.85
2023-03-10T19:36:02.295Z,98.88
2023-03-10T19:38:30.248Z,100.00
2023-03-10T19:40:58.286Z,100.00
2023-03-10T19:43:25.936Z,100.00
2023-03-10T19:45:53.571Z,100.00
2023-03-10T19:48:21.207Z,100.00
2023-03-10T19:50:54.902Z,100.00
2023-03-10T19:53:24.729Z,100.00
2023-03-10T19:55:59.419Z,100.00
2023-03-10T19:58:27.672Z,100.00
2023-03-10T20:00:58.571Z,100.00
2023-03-10T20:03:29.631Z,100.00
2023-03-10T20:05:58.068Z,100.00
2023-03-10T20:08:25.918Z,100.00
2023-03-10T20:10:53.528Z,100.00
2023-03-10T20:13:21.233Z,100.00
2023-03-10T20:15:48.998Z,100.00
2023-03-10T20:18:18.598Z,100.00
2023-03-10T20:20:46.275Z,100.00
2023-03-10T20:23:15.033Z,100.00
2023-03-10T20:25:45.614Z,100.00
2023-03-10T20:28:14.115Z,100.00
2023-03-10T20:30:42.037Z,100.00
2023-03-10T20:33:10.988Z,100.00
2023-03-10T20:35:39.111Z,100.00
2023-03-10T20:38:06.735Z,100.00
2023-03-10T20:40:34.391Z,100.00
2023-03-10T20:43:04.473Z,100.00
2023-03-10T20:45:32.845Z,100.00
2023-03-10T20:48:00.464Z,100.00
2023-03-10T20:50:28.345Z,100.00
2023-03-10T20:52:58.536Z,100.00
2023-03-10T20:55:32.083Z,100.00
2023-03-10T20:58:01.444Z,100.00
2023-03-10T21:00:31.032Z,100.00
2023-03-10T21:03:00.841Z,100.00
2023-03-10T21:05:29.789Z,100.00
2023-03-10T21:07:58.191Z,100.00
2023-03-10T21:10:26.634Z,100.00
2023-03-10T21:12:56.737Z,100.00
2023-03-10T21:15:25.424Z,100.00
2023-03-10T21:17:53.158Z,100.00
2023-03-10T21:20:23.844Z,100.00
2023-03-10T21:22:53.870Z,100.00
2023-03-10T21:25:25.628Z,100.00
2023-03-10T21:27:58.892Z,100.00
2023-03-10T21:30:29.901Z,100.00
2023-03-10T21:32:58.734Z,100.00
2023-03-10T21:35:28.218Z,100.00
2023-03-10T21:37:59.406Z,100.00
2023-03-10T21:40:27.737Z,100.00
2023-03-10T21:42:55.446Z,100.00
2023-03-10T21:45:25.224Z,100.00
2023-03-10T21:47:52.916Z,100.00
2023-03-10T21:50:21.127Z,100.00
2023-03-10T21:52:51.344Z,100.00
2023-03-10T21:55:23.022Z,100.00
2023-03-10T21:57:51.246Z,100.00
2023-03-10T22:00:23.048Z,100.00
2023-03-10T22:02:51.151Z,100.00
2023-03-10T22:05:20.240Z,100.00
2023-03-10T22:07:47.997Z,100.00
2023-03-10T22:10:16.201Z,100.00
2023-03-10T22:12:44.077Z,100.00
2023-03-10T22:15:17.461Z,100.00
2023-03-10T22:17:45.318Z,100.00
2023-03-10T22:20:22.309Z,100.00
2023-03-10T22:22:50.360Z,100.00
2023-03-10T22:25:18.960Z,100.00
2023-03-10T22:27:53.685Z,100.00
2023-03-10T22:30:25.994Z,100.00
2023-03-10T22:32:54.039Z,99.84
2023-03-10T22:35:21.745Z,99.91
2023-03-10T22:37:51.309Z,99.33
2023-03-10T22:40:21.868Z,99.17
2023-03-10T22:42:49.959Z,98.68
2023-03-10T22:45:32.101Z,98.47
2023-03-10T22:48:02.187Z,97.43
2023-03-10T22:50:33.921Z,97.04
2023-03-10T22:53:02.640Z,97.14
2023-03-10T22:55:35.014Z,96.32
2023-03-10T22:58:04.654Z,95.41
2023-03-10T23:00:32.637Z,94.49
2023-03-10T23:03:00.492Z,93.51
2023-03-10T23:05:33.231Z,93.59
2023-03-10T23:08:00.877Z,92.73
2023-03-10T23:10:31.818Z,91.80
2023-03-10T23:13:01.023Z,92.49
2023-03-10T23:15:33.351Z,91.72
2023-03-10T23:18:01.382Z,90.66
2023-03-10T23:20:35.437Z,89.83
2023-03-10T23:23:07.019Z,87.98
2023-03-10T23:25:36.133Z,86.36
2023-03-10T23:28:05.344Z,84.71
2023-03-10T23:30:33.834Z,83.58
2023-03-10T23:33:02.156Z,83.39
2023-03-10T23:35:32.819Z,82.13
2023-03-10T23:38:01.867Z,81.24
2023-03-10T23:40:31.653Z,81.17
2023-03-10T23:43:01.364Z,81.19
2023-03-10T23:45:31.199Z,80.83
2023-03-10T23:48:02.640Z,80.76
2023-03-10T23:50:33.187Z,80.45
2023-03-10T23:53:01.908Z,79.89
2023-03-10T23:55:32.550Z,79.32
2023-03-10T23:58:00.628Z,79.34
